Time;durP1;ratioP1;P1;durP2;ratioP2;P2;SDS_P1;SDS_P2;PMS_P1;PMS_P2;Temp;Humidity;BMP_temperature;BMP_pressure;BME280_temperature;BME280_humidity;BME280_pressure;Samples;Min_cycle;Max_cycle;Signal;HPM_P1;HPM_P2
2021/09/25 00:00:34;;;;;;;10.57;5.40;;;14.80;86.90;;;;;;5004153;28;20043;-74
2021/09/25 00:03:02;;;;;;;12.02;5.70;;;14.80;86.90;;;;;;5002598;28;20069;-71
2021/09/25 00:05:32;;;;;;;12.52;7.05;;;14.80;87.00;;;;;;5000128;28;20034;-74
2021/09/25 00:07:58;;;;;;;12.13;6.93;;;14.80;86.90;;;;;;5007528;28;20045;-74
2021/09/25 00:10:24;;;;;;;10.52;6.38;;;14.80;87.20;;;;;;5006096;28;20031;-75
2021/09/25 00:12:55;;;;;;;11.30;6.38;;;14.70;87.40;;;;;;5007403;28;20038;-71
2021/09/25 00:15:21;;;;;;;13.10;6.60;;;14.70;87.50;;;;;;5006202;28;20038;-72
2021/09/25 00:17:47;;;;;;;10.25;6.35;;;14.70;87.50;;;;;;5007489;28;20026;-72
2021/09/25 00:20:15;;;;;;;9.80;5.88;;;14.70;87.50;;;;;;5005467;28;20031;-73
2021/09/25 00:22:40;;;;;;;11.57;6.45;;;14.70;87.50;;;;;;5008848;28;20058;-75
2021/09/25 00:25:07;;;;;;;11.27;6.90;;;14.70;87.40;;;;;;5006812;28;20038;-74
2021/09/25 00:27:32;;;;;;;11.38;6.95;;;14.70;87.40;;;;;;5008439;28;20035;-75
2021/09/25 00:29:58;;;;;;;10.80;7.15;;;14.70;87.50;;;;;;4999448;28;20094;-72
2021/09/25 00:32:24;;;;;;;11.48;7.22;;;14.70;87.50;;;;;;5006779;28;20050;-74
2021/09/25 00:34:50;;;;;;;12.13;7.68;;;14.70;87.50;;;;;;5008684;28;20039;-73
2021/09/25 00:37:16;;;;;;;12.25;7.93;;;14.70;87.30;;;;;;4998714;28;20023;-74
2021/09/25 00:39:42;;;;;;;12.43;8.40;;;14.60;87.50;;;;;;5006580;28;20533;-74
2021/09/25 00:42:08;;;;;;;12.13;7.63;;;14.60;87.60;;;;;;5005298;28;20035;-74
2021/09/25 00:44:33;;;;;;;13.18;8.07;;;14.60;87.70;;;;;;5011577;28;20038;-71
2021/09/25 00:46:59;;;;;;;14.00;9.32;;;14.60;87.80;;;;;;5002911;28;20027;-75
2021/09/25 00:49:26;;;;;;;14.32;8.88;;;14.60;87.90;;;;;;5005341;28;20026;-72
2021/09/25 00:51:52;;;;;;;14.35;9.30;;;14.60;87.90;;;;;;5003359;28;20098;-75
2021/09/25 00:54:18;;;;;;;15.05;9.25;;;14.60;87.90;;;;;;5008463;28;20026;-75
2021/09/25 00:56:45;;;;;;;16.05;10.30;;;14.60;88.00;;;;;;5004704;28;20323;-74
2021/09/25 00:59:12;;;;;;;15.38;10.13;;;14.50;88.00;;;;;;5002914;28;20102;-72
2021/09/25 01:01:39;;;;;;;15.50;9.93;;;14.50;88.10;;;;;;5006740;28;20077;-73
2021/09/25 01:04:05;;;;;;;16.17;10.55;;;14.50;88.20;;;;;;5004893;28;20069;-76
2021/09/25 01:06:31;;;;;;;16.10;10.48;;;14.40;88.40;;;;;;5007145;28;20098;-75
2021/09/25 01:08:57;;;;;;;16.65;11.25;;;14.40;88.30;;;;;;5007552;28;20038;-77
2021/09/25 01:11:23;;;;;;;16.67;11.55;;;14.40;88.40;;;;;;5006344;28;20061;-76
2021/09/25 01:13:49;;;;;;;17.15;11.52;;;14.40;88.60;;;;;;5010680;28;20050;-72
2021/09/25 01:16:15;;;;;;;17.08;12.05;;;14.40;88.60;;;;;;5009036;28;20127;-76
2021/09/25 01:18:40;;;;;;;16.45;11.35;;;14.40;88.60;;;;;;5005038;28;20050;-74
2021/09/25 01:21:09;;;;;;;18.05;11.90;;;14.40;88.60;;;;;;5010666;28;20027;-75
2021/09/25 01:23:37;;;;;;;18.50;12.32;;;14.30;88.80;;;;;;5009364;28;20096;-73
2021/09/25 01:26:03;;;;;;;20.80;12.48;;;14.30;88.80;;;;;;5009455;28;20050;-72
2021/09/25 01:28:32;;;;;;;17.75;12.18;;;14.30;88.90;;;;;;5005985;28;20118;-75
2021/09/25 01:30:58;;;;;;;19.98;13.55;;;14.40;88.90;;;;;;5003679;28;20027;-72
2021/09/25 01:33:30;;;;;;;18.60;13.75;;;14.40;88.70;;;;;;5009675;28;20049;-73
2021/09/25 01:35:56;;;;;;;18.95;12.98;;;14.40;88.80;;;;;;5009037;28;20026;-73
2021/09/25 01:38:22;;;;;;;19.23;13.70;;;14.40;88.70;;;;;;5009850;28;20030;-76
2021/09/25 01:40:48;;;;;;;18.63;13.40;;;14.40;88.80;;;;;;5009590;28;20038;-75
2021/09/25 01:43:15;;;;;;;20.45;14.73;;;14.40;88.70;;;;;;5009795;28;20049;-74
2021/09/25 01:45:42;;;;;;;23.45;16.45;;;14.30;88.60;;;;;;5001150;28;20031;-74
2021/09/25 01:48:09;;;;;;;22.60;14.60;;;14.30;88.70;;;;;;5006862;28;20038;-74
2021/09/25 01:50:35;;;;;;;23.00;16.40;;;14.30;88.70;;;;;;5009129;28;20042;-71
2021/09/25 01:53:01;;;;;;;24.38;15.88;;;14.30;88.60;;;;;;5010889;28;20061;-71
2021/09/25 01:55:27;;;;;;;24.02;17.30;;;14.30;88.70;;;;;;5010115;28;20122;-75
2021/09/25 01:57:52;;;;;;;24.27;16.95;;;14.40;88.70;;;;;;5007118;28;20030;-76
2021/09/25 02:00:19;;;;;;;24.70;17.80;;;14.50;88.60;;;;;;5007860;28;20042;-74
2021/09/25 02:02:45;;;;;;;22.38;15.85;;;14.50;88.70;;;;;;5007808;28;20030;-71
2021/09/25 02:05:11;;;;;;;23.98;16.88;;;14.50;88.70;;;;;;5008616;28;20049;-75
2021/09/25 02:07:37;;;;;;;26.90;18.80;;;14.50;88.70;;;;;;5004749;28;20099;-71
2021/09/25 02:10:04;;;;;;;25.77;18.52;;;14.50;88.70;;;;;;5011190;28;20030;-75
2021/09/25 02:12:29;;;;;;;25.33;17.90;;;14.50;88.80;;;;;;5008307;28;20026;-75
2021/09/25 02:14:55;;;;;;;25.17;18.90;;;14.50;88.80;;;;;;5011105;28;20045;-74
2021/09/25 02:17:21;;;;;;;26.05;18.45;;;14.60;88.70;;;;;;5002830;28;20065;-74
2021/09/25 02:19:48;;;;;;;25.00;19.02;;;14.60;88.70;;;;;;5008250;28;20034;-69
2021/09/25 02:22:15;;;;;;;30.63;20.92;;;14.60;88.70;;;;;;5007361;28;20034;-75
2021/09/25 02:24:40;;;;;;;28.45;19.88;;;14.60;88.60;;;;;;5006840;28;20065;-72
2021/09/25 02:27:06;;;;;;;26.75;20.70;;;14.60;88.60;;;;;;5007361;28;20030;-75
2021/09/25 02:29:32;;;;;;;31.48;21.63;;;14.60;88.70;;;;;;5012815;28;20046;-72
2021/09/25 02:31:58;;;;;;;27.25;20.25;;;14.50;88.80;;;;;;5006065;28;20047;-73
2021/09/25 02:34:23;;;;;;;27.90;20.83;;;14.50;88.80;;;;;;5007100;28;20042;-75
2021/09/25 02:36:49;;;;;;;25.25;19.60;;;14.50;88.90;;;;;;5010999;28;20496;-75
2021/09/25 02:39:15;;;;;;;26.63;20.15;;;14.50;88.90;;;;;;5006280;28;20098;-73
2021/09/25 02:41:41;;;;;;;28.73;20.60;;;14.40;88.90;;;;;;5007183;28;20030;-71
2021/09/25 02:44:06;;;;;;;28.80;20.02;;;14.40;89.00;;;;;;5010760;28;20090;-74
2021/09/25 02:46:32;;;;;;;28.48;21.13;;;14.40;89.00;;;;;;5006641;28;20037;-74
2021/09/25 02:48:57;;;;;;;27.10;20.80;;;14.30;88.90;;;;;;5002531;28;20042;-72
2021/09/25 02:51:23;;;;;;;29.98;20.45;;;14.30;89.00;;;;;;5006588;28;20030;-73
2021/09/25 02:53:49;;;;;;;29.63;20.73;;;14.30;89.00;;;;;;5007066;28;20042;-73
2021/09/25 02:56:14;;;;;;;27.83;19.63;;;14.20;89.00;;;;;;5009136;28;20031;-73
2021/09/25 02:58:40;;;;;;;27.95;19.20;;;14.30;89.00;;;;;;5008302;28;20035;-74
2021/09/25 03:01:06;;;;;;;32.17;21.40;;;14.20;89.00;;;;;;5006502;28;20040;-75
2021/09/25 03:03:31;;;;;;;27.60;20.20;;;14.20;89.00;;;;;;5010063;28;20094;-71
2021/09/25 03:05:57;;;;;;;28.80;20.27;;;14.10;89.10;;;;;;5011107;28;20080;-75
2021/09/25 03:08:23;;;;;;;26.23;20.15;;;14.10;89.20;;;;;;5011107;28;20053;-75
2021/09/25 03:10:48;;;;;;;27.23;18.85;;;14.10;89.30;;;;;;5011335;28;20066;-77
2021/09/25 03:13:14;;;;;;;25.33;18.90;;;14.10;89.20;;;;;;5004974;28;20026;-73
2021/09/25 03:15:40;;;;;;;26.10;19.50;;;14.10;89.20;;;;;;5005416;28;20042;-72
2021/09/25 03:18:06;;;;;;;24.27;18.40;;;14.10;89.20;;;;;;5009623;28;20030;-76
2021/09/25 03:20:32;;;;;;;27.90;19.70;;;14.10;89.20;;;;;;5001450;28;20038;-72
2021/09/25 03:22:58;;;;;;;27.05;19.27;;;14.00;89.00;;;;;;5007072;28;20069;-74
2021/09/25 03:25:23;;;;;;;26.63;20.65;;;14.00;89.00;;;;;;5008866;28;20058;-74
2021/09/25 03:27:54;;;;;;;26.20;19.48;;;14.00;89.00;;;;;;5010713;28;20046;-72
2021/09/25 03:30:20;;;;;;;27.13;19.70;;;14.00;89.00;;;;;;5008644;28;20045;-75
2021/09/25 03:32:46;;;;;;;24.65;19.50;;;14.00;88.90;;;;;;5006612;28;20425;-73
2021/09/25 03:35:12;;;;;;;28.83;19.27;;;13.90;89.00;;;;;;5008570;28;20058;-74
2021/09/25 03:37:38;;;;;;;27.48;19.63;;;13.90;89.10;;;;;;5007611;28;20062;-72
2021/09/25 03:40:05;;;;;;;27.58;20.92;;;13.90;89.10;;;;;;5005107;28;20052;-71
2021/09/25 03:42:30;;;;;;;26.90;19.48;;;13.80;89.10;;;;;;5008827;28;20039;-75
2021/09/25 03:44:56;;;;;;;28.88;20.35;;;13.80;89.10;;;;;;5008232;28;20069;-75
2021/09/25 03:47:22;;;;;;;29.20;21.00;;;13.80;89.10;;;;;;5007940;28;20134;-72
2021/09/25 03:49:47;;;;;;;29.90;22.25;;;13.80;89.10;;;;;;5004002;28;20038;-74
2021/09/25 03:52:13;;;;;;;27.67;19.70;;;13.80;89.00;;;;;;5005449;28;20086;-74
2021/09/25 03:54:39;;;;;;;30.30;20.95;;;13.70;89.10;;;;;;5009876;28;20065;-71
2021/09/25 03:57:04;;;;;;;28.92;20.80;;;13.70;89.10;;;;;;5005730;28;20027;-75
2021/09/25 03:59:31;;;;;;;27.75;20.75;;;13.70;89.10;;;;;;5009357;28;20030;-74
2021/09/25 04:01:56;;;;;;;29.90;21.38;;;13.70;89.20;;;;;;5009046;28;20057;-73
2021/09/25 04:04:22;;;;;;;28.85;22.05;;;13.60;89.30;;;;;;5010827;28;20094;-74
2021/09/25 04:06:47;;;;;;;29.52;21.55;;;13.60;89.30;;;;;;5016426;28;20597;-75
2021/09/25 04:09:13;;;;;;;31.45;22.77;;;13.70;89.40;;;;;;5010347;28;20054;-72
2021/09/25 04:11:39;;;;;;;30.23;22.08;;;13.60;89.50;;;;;;5010461;28;20038;-72
2021/09/25 04:14:04;;;;;;;29.75;23.05;;;13.60;89.50;;;;;;5009245;28;20417;-76
2021/09/25 04:16:30;;;;;;;31.42;23.20;;;13.60;89.60;;;;;;5005891;28;20054;-75
2021/09/25 04:18:56;;;;;;;32.20;22.45;;;13.60;89.60;;;;;;5010520;28;20057;-74
2021/09/25 04:21:22;;;;;;;28.95;21.92;;;13.60;89.70;;;;;;5006568;28;20059;-73
2021/09/25 04:23:48;;;;;;;33.28;23.23;;;13.60;89.70;;;;;;5011581;28;20046;-73
2021/09/25 04:26:13;;;;;;;30.23;21.77;;;13.60;89.60;;;;;;5009076;28;20055;-73
2021/09/25 04:28:39;;;;;;;33.55;23.85;;;13.50;89.70;;;;;;5011637;28;20030;-76
2021/09/25 04:31:05;;;;;;;35.33;23.33;;;13.50;89.70;;;;;;5007436;28;20260;-74
2021/09/25 04:33:30;;;;;;;31.20;23.70;;;13.50;89.80;;;;;;5004192;28;20031;-73
2021/09/25 04:35:56;;;;;;;33.45;23.45;;;13.50;89.80;;;;;;5003202;28;20111;-75
2021/09/25 04:38:22;;;;;;;31.42;23.48;;;13.50;89.90;;;;;;5007548;28;20106;-74
2021/09/25 04:40:47;;;;;;;34.08;24.60;;;13.50;90.00;;;;;;5002740;28;20034;-75
2021/09/25 04:43:13;;;;;;;32.72;23.98;;;13.50;90.00;;;;;;5025293;28;20110;-74
2021/09/25 04:45:39;;;;;;;32.58;23.95;;;13.50;89.90;;;;;;5016908;28;20034;-71
2021/09/25 04:48:05;;;;;;;32.83;22.35;;;13.40;90.00;;;;;;5013799;28;20041;-71
2021/09/25 04:50:31;;;;;;;33.17;23.80;;;13.40;90.00;;;;;;5009770;28;20038;-75
2021/09/25 04:53:15;;;;;;;32.28;23.75;;;13.50;90.00;;;;;;5014396;28;20094;-75
2021/09/25 04:55:42;;;;;;;33.38;24.27;;;13.50;89.90;;;;;;5012401;28;20046;-74
2021/09/25 04:58:08;;;;;;;32.15;23.20;;;13.40;89.90;;;;;;5016009;28;20027;-76
2021/09/25 05:00:34;;;;;;;33.08;23.50;;;13.40;89.80;;;;;;5015353;28;20052;-73
2021/09/25 05:03:00;;;;;;;35.30;24.67;;;13.40;89.90;;;;;;5013432;28;20053;-73
2021/09/25 05:05:26;;;;;;;35.85;25.42;;;13.40;89.90;;;;;;5013449;28;20034;-74
2021/09/25 05:07:51;;;;;;;35.22;23.98;;;13.40;89.80;;;;;;5014715;28;20037;-70
2021/09/25 05:10:17;;;;;;;33.85;23.27;;;13.30;89.90;;;;;;5010644;28;20038;-68
2021/09/25 05:12:44;;;;;;;34.95;25.10;;;13.30;90.00;;;;;;5013613;28;20034;-71
2021/09/25 05:15:10;;;;;;;35.90;23.63;;;13.30;90.00;;;;;;5009419;28;20122;-71
2021/09/25 05:17:36;;;;;;;32.03;23.45;;;13.30;90.10;;;;;;5004587;28;20034;-70
2021/09/25 05:20:04;;;;;;;36.13;24.33;;;13.30;90.10;;;;;;5004875;28;20035;-70
2021/09/25 05:22:30;;;;;;;39.45;24.15;;;13.30;90.00;;;;;;5019003;28;20042;-72
2021/09/25 05:24:56;;;;;;;33.60;24.67;;;13.30;89.90;;;;;;5007741;28;20046;-71
2021/09/25 05:27:21;;;;;;;39.03;26.52;;;13.20;89.90;;;;;;5000843;28;20808;-72
2021/09/25 05:29:47;;;;;;;36.05;25.88;;;13.20;89.90;;;;;;5005038;28;20038;-68
2021/09/25 05:32:12;;;;;;;36.13;25.20;;;13.20;90.10;;;;;;5004191;28;20468;-71
2021/09/25 05:34:42;;;;;;;35.90;25.27;;;13.20;90.00;;;;;;5003168;28;20038;-69
2021/09/25 05:37:08;;;;;;;41.53;27.40;;;13.20;90.00;;;;;;5005106;28;20026;-72
2021/09/25 05:39:34;;;;;;;38.78;26.25;;;13.10;90.10;;;;;;5012083;28;20058;-70
2021/09/25 05:42:00;;;;;;;38.95;26.77;;;13.10;90.20;;;;;;5006820;28;20026;-68
2021/09/25 05:44:26;;;;;;;38.75;27.55;;;13.10;90.10;;;;;;5008189;28;20371;-72
2021/09/25 05:46:51;;;;;;;37.55;26.30;;;13.10;90.30;;;;;;5008723;28;20037;-71
2021/09/25 05:49:17;;;;;;;37.85;25.45;;;13.10;90.20;;;;;;5015586;28;20089;-72
2021/09/25 05:51:43;;;;;;;39.72;27.00;;;13.10;90.30;;;;;;5012397;28;20057;-68
2021/09/25 05:54:08;;;;;;;41.03;26.90;;;13.10;90.20;;;;;;5003405;28;20402;-70
2021/09/25 05:56:34;;;;;;;41.08;27.42;;;13.10;90.20;;;;;;5009605;28;20090;-69
2021/09/25 05:59:00;;;;;;;39.13;27.25;;;13.10;90.10;;;;;;5009523;28;20406;-70
2021/09/25 06:01:26;;;;;;;38.33;26.73;;;13.10;90.20;;;;;;5007118;28;20082;-72
2021/09/25 06:03:52;;;;;;;38.40;26.27;;;13.10;90.10;;;;;;5006038;28;20095;-71
2021/09/25 06:06:17;;;;;;;37.03;26.35;;;13.10;90.10;;;;;;5009147;28;20034;-68
2021/09/25 06:08:43;;;;;;;41.17;27.85;;;13.10;90.00;;;;;;5008656;28;20049;-70
2021/09/25 06:11:09;;;;;;;37.75;27.02;;;13.20;90.00;;;;;;5008323;28;20035;-71
2021/09/25 06:13:34;;;;;;;38.13;26.55;;;13.20;90.00;;;;;;5009349;28;20034;-72
2021/09/25 06:16:00;;;;;;;38.20;26.17;;;13.30;90.00;;;;;;5005843;28;20030;-72
2021/09/25 06:18:26;;;;;;;35.28;25.40;;;13.30;89.90;;;;;;5006482;28;20023;-69
2021/09/25 06:20:51;;;;;;;38.80;25.98;;;13.40;90.10;;;;;;5010682;28;20034;-70
2021/09/25 06:23:17;;;;;;;37.22;24.48;;;13.50;89.80;;;;;;5007796;28;20049;-70
2021/09/25 06:25:43;;;;;;;33.42;23.80;;;13.70;89.20;;;;;;5005266;28;20106;-72
2021/09/25 06:28:09;;;;;;;32.63;23.95;;;13.90;89.00;;;;;;5010705;28;20026;-70
2021/09/25 06:30:40;;;;;;;41.53;23.05;;;14.40;88.10;;;;;;5007282;28;20037;-71
2021/09/25 06:33:10;;;;;;;30.48;21.80;;;14.90;86.00;;;;;;5006702;28;20030;-71
2021/09/25 06:35:36;;;;;;;26.48;20.67;;;15.20;83.70;;;;;;5004095;28;20527;-70
2021/09/25 06:38:02;;;;;;;29.90;21.80;;;15.70;82.90;;;;;;5007971;28;20037;-71
2021/09/25 06:40:28;;;;;;;29.73;22.25;;;15.80;81.60;;;;;;5006371;28;20035;-69
2021/09/25 06:42:54;;;;;;;31.33;22.58;;;15.50;82.50;;;;;;5005980;28;20041;-71
2021/09/25 06:45:20;;;;;;;30.13;21.98;;;15.20;83.00;;;;;;5005817;28;20166;-69
2021/09/25 06:47:45;;;;;;;34.45;23.25;;;15.10;83.80;;;;;;5008094;28;20066;-72
2021/09/25 06:50:11;;;;;;;34.40;24.05;;;14.90;84.60;;;;;;5006233;28;20034;-72
2021/09/25 06:52:37;;;;;;;37.88;25.23;;;14.70;85.20;;;;;;5004606;28;20058;-70
2021/09/25 06:55:04;;;;;;;39.42;25.63;;;14.60;85.90;;;;;;5008439;28;20042;-69
2021/09/25 06:57:30;;;;;;;41.00;26.88;;;14.60;86.20;;;;;;5005278;28;20019;-69
2021/09/25 06:59:56;;;;;;;40.92;25.80;;;14.60;86.60;;;;;;5009294;28;20102;-70
2021/09/25 07:02:23;;;;;;;39.92;25.70;;;14.60;86.80;;;;;;5007431;28;20035;-71
2021/09/25 07:04:49;;;;;;;39.90;25.17;;;14.50;87.20;;;;;;5009212;28;20065;-71
2021/09/25 07:07:14;;;;;;;42.42;25.90;;;14.60;87.50;;;;;;5006644;28;20034;-75
2021/09/25 07:09:41;;;;;;;38.25;24.55;;;14.60;87.50;;;;;;5009790;28;20192;-74
2021/09/25 07:12:10;;;;;;;41.03;24.65;;;14.70;87.40;;;;;;5008608;28;20026;-72
2021/09/25 07:14:36;;;;;;;39.53;24.85;;;14.60;87.20;;;;;;5008741;28;20069;-77
2021/09/25 07:17:03;;;;;;;39.22;24.92;;;14.60;87.40;;;;;;5007767;28;20041;-73
2021/09/25 07:19:28;;;;;;;32.80;22.58;;;14.70;87.50;;;;;;5010738;28;20090;-75
2021/09/25 07:21:54;;;;;;;34.42;22.60;;;14.70;87.50;;;;;;5003675;28;20030;-70
2021/09/25 07:24:19;;;;;;;35.55;23.65;;;14.80;87.50;;;;;;5009419;28;20038;-71
2021/09/25 07:26:45;;;;;;;37.33;24.05;;;14.90;87.40;;;;;;5006753;28;20066;-72
2021/09/25 07:29:11;;;;;;;38.22;24.40;;;14.90;87.10;;;;;;5009540;28;20069;-69
2021/09/25 07:31:37;;;;;;;38.47;24.77;;;15.00;87.00;;;;;;5006892;28;20058;-70
2021/09/25 07:34:02;;;;;;;37.30;25.17;;;15.20;87.00;;;;;;5011479;28;20038;-70
2021/09/25 07:36:28;;;;;;;39.13;24.80;;;15.30;87.00;;;;;;5008498;28;20027;-72
2021/09/25 07:38:55;;;;;;;38.78;24.25;;;15.40;86.60;;;;;;5003469;28;20109;-71
2021/09/25 07:41:22;;;;;;;39.05;23.90;;;15.50;86.10;;;;;;5001027;28;20034;-71
2021/09/25 07:43:48;;;;;;;36.97;24.08;;;15.40;86.00;;;;;;5006288;28;20102;-70
2021/09/25 07:46:13;;;;;;;38.90;24.13;;;15.50;86.00;;;;;;5006088;28;20073;-72
2021/09/25 07:48:39;;;;;;;39.10;25.40;;;15.50;85.70;;;;;;5004778;28;20034;-72
2021/09/25 07:51:05;;;;;;;35.92;24.63;;;15.40;85.50;;;;;;5001972;28;20190;-70
2021/09/25 07:53:30;;;;;;;35.67;23.90;;;15.60;85.90;;;;;;5011875;28;20037;-70
2021/09/25 07:55:56;;;;;;;35.80;23.52;;;15.80;85.60;;;;;;5006045;28;20053;-71
2021/09/25 07:58:22;;;;;;;38.22;23.95;;;16.10;85.10;;;;;;5005924;28;20036;-71
2021/09/25 08:00:48;;;;;;;38.53;25.40;;;16.00;84.10;;;;;;5005826;28;20046;-70
2021/09/25 08:03:14;;;;;;;34.65;23.27;;;16.20;84.60;;;;;;5009375;28;20070;-71
2021/09/25 08:05:40;;;;;;;35.03;22.98;;;16.30;83.80;;;;;;5011589;28;20050;-70
2021/09/25 08:08:06;;;;;;;31.80;23.20;;;16.50;83.70;;;;;;5004783;28;20030;-71
2021/09/25 08:10:32;;;;;;;32.95;22.65;;;16.80;83.60;;;;;;5007531;28;20034;-72
2021/09/25 08:12:58;;;;;;;34.00;23.50;;;17.10;82.60;;;;;;5006576;28;20049;-71
2021/09/25 08:15:23;;;;;;;35.45;24.52;;;17.10;81.40;;;;;;5008564;28;20070;-71
2021/09/25 08:17:49;;;;;;;31.70;23.25;;;17.20;81.30;;;;;;5013438;28;20069;-71
2021/09/25 08:20:16;;;;;;;33.97;23.95;;;17.20;80.30;;;;;;5014858;28;20053;-72
2021/09/25 08:22:43;;;;;;;30.42;23.20;;;17.30;80.30;;;;;;5010942;28;20031;-72
2021/09/25 08:25:10;;;;;;;31.17;21.35;;;17.50;79.40;;;;;;5013746;28;20053;-68
2021/09/25 08:27:36;;;;;;;30.17;22.05;;;17.60;79.40;;;;;;5007883;28;20101;-71
2021/09/25 08:30:04;;;;;;;27.52;20.30;;;17.60;79.60;;;;;;5010727;28;20020;-71
2021/09/25 08:32:30;;;;;;;28.77;20.88;;;17.60;79.90;;;;;;5015949;28;20125;-70
2021/09/25 08:34:55;;;;;;;28.17;19.92;;;17.60;79.80;;;;;;5015312;28;20042;-70
2021/09/25 08:37:21;;;;;;;26.52;20.02;;;18.00;79.70;;;;;;5012093;28;20038;-71
2021/09/25 08:39:47;;;;;;;30.13;21.30;;;18.20;78.10;;;;;;5015252;28;20038;-71
2021/09/25 08:42:15;;;;;;;26.60;19.50;;;18.40;77.40;;;;;;5012335;28;20041;-71
2021/09/25 08:44:43;;;;;;;28.80;21.35;;;18.50;77.80;;;;;;5015510;28;20042;-68
2021/09/25 08:47:09;;;;;;;25.42;19.52;;;18.60;77.00;;;;;;5011439;28;20031;-71
2021/09/25 08:49:35;;;;;;;30.20;20.85;;;18.80;77.20;;;;;;5014039;28;20039;-69
2021/09/25 08:52:01;;;;;;;28.73;20.70;;;18.90;76.20;;;;;;5015010;28;20101;-69
2021/09/25 08:54:28;;;;;;;24.33;19.60;;;19.10;76.10;;;;;;5010541;28;20062;-72
2021/09/25 08:56:53;;;;;;;24.92;18.27;;;19.30;75.50;;;;;;5012939;28;20069;-71
2021/09/25 08:59:19;;;;;;;23.73;17.45;;;19.60;74.80;;;;;;5009010;28;20018;-70
2021/09/25 09:01:45;;;;;;;20.63;16.02;;;19.80;73.80;;;;;;5011180;28;20034;-71
2021/09/25 09:04:11;;;;;;;22.15;17.40;;;20.10;73.10;;;;;;5010138;28;20042;-70
2021/09/25 09:06:38;;;;;;;19.58;16.23;;;20.30;71.60;;;;;;5010826;28;20106;-69
2021/09/25 09:09:09;;;;;;;21.40;16.35;;;20.60;71.20;;;;;;5001670;28;20039;-70
2021/09/25 09:11:41;;;;;;;24.05;16.88;;;20.50;70.90;;;;;;5008555;28;20042;-70
2021/09/25 09:14:07;;;;;;;21.30;16.30;;;20.40;71.30;;;;;;5009061;28;20037;-72
2021/09/25 09:16:33;;;;;;;20.65;15.90;;;20.60;71.00;;;;;;5011991;28;20082;-71
2021/09/25 09:19:00;;;;;;;21.27;15.82;;;20.50;70.80;;;;;;5008512;28;20034;-72
2021/09/25 09:21:28;;;;;;;21.50;16.05;;;20.40;71.30;;;;;;5007866;28;20149;-71
2021/09/25 09:24:07;;;;;;;23.90;15.98;;;20.20;71.70;;;;;;5012577;28;20038;-70
2021/09/25 09:26:38;;;;;;;19.50;15.52;;;20.40;71.10;;;;;;5010881;28;20044;-71
2021/09/25 09:29:07;;;;;;;20.33;15.57;;;20.50;70.90;;;;;;5006814;28;20100;-70
2021/09/25 09:31:37;;;;;;;17.25;14.30;;;20.60;71.00;;;;;;5009225;28;20037;-71
2021/09/25 09:34:06;;;;;;;18.17;13.57;;;20.80;70.30;;;;;;5013901;28;20046;-70
2021/09/25 09:36:32;;;;;;;18.75;12.35;;;20.70;70.80;;;;;;5016245;28;20110;-72
2021/09/25 09:39:15;;;;;;;17.92;12.25;;;20.80;70.60;;;;;;5014125;28;20038;-70
2021/09/25 09:41:52;;;;;;;15.75;10.60;;;21.10;69.10;;;;;;5009643;28;20132;-70
2021/09/25 09:44:21;;;;;;;16.00;10.85;;;21.20;68.70;;;;;;5007181;28;20038;-69
2021/09/25 09:46:48;;;;;;;16.67;11.40;;;21.20;68.50;;;;;;5007525;28;20014;-69
2021/09/25 09:49:16;;;;;;;16.92;11.30;;;21.30;68.60;;;;;;5018588;28;20049;-68
2021/09/25 09:51:49;;;;;;;17.75;11.35;;;21.30;69.80;;;;;;5007147;28;20112;-70
2021/09/25 09:54:29;;;;;;;15.60;10.10;;;21.20;68.90;;;;;;5008696;28;20049;-70
2021/09/25 09:57:01;;;;;;;13.73;9.02;;;21.40;68.20;;;;;;5022993;28;20038;-71
2021/09/25 09:59:27;;;;;;;11.60;7.20;;;21.50;68.00;;;;;;5010532;28;20070;-69
2021/09/25 10:01:53;;;;;;;12.77;8.82;;;21.70;66.60;;;;;;5010035;28;20069;-70
2021/09/25 10:04:19;;;;;;;12.07;7.35;;;21.60;65.90;;;;;;5004534;28;20050;-70
2021/09/25 10:06:46;;;;;;;13.00;9.15;;;21.80;66.60;;;;;;5004481;28;20043;-69
2021/09/25 10:09:15;;;;;;;13.90;8.13;;;22.00;65.70;;;;;;5008882;28;20030;-70
2021/09/25 10:11:43;;;;;;;11.25;8.07;;;22.10;65.80;;;;;;5006751;28;20046;-71
2021/09/25 10:14:13;;;;;;;13.05;7.80;;;22.10;65.10;;;;;;5005462;28;20046;-69
2021/09/25 10:16:40;;;;;;;12.90;7.82;;;22.10;64.80;;;;;;5008071;28;20047;-69
2021/09/25 10:19:06;;;;;;;12.50;8.27;;;22.20;64.40;;;;;;5004844;28;20028;-71
2021/09/25 10:21:36;;;;;;;11.63;7.47;;;22.10;65.50;;;;;;5012077;28;20053;-70
2021/09/25 10:24:14;;;;;;;9.95;6.10;;;22.30;63.70;;;;;;5011600;28;20097;-74
2021/09/25 10:26:44;;;;;;;11.27;7.47;;;22.50;63.30;;;;;;5010869;28;20054;-77
2021/09/25 10:29:16;;;;;;;10.27;7.18;;;22.50;63.10;;;;;;5008282;28;20026;-75
2021/09/25 10:31:42;;;;;;;11.63;6.97;;;22.50;63.70;;;;;;5010125;28;20042;-74
2021/09/25 10:34:11;;;;;;;11.25;6.55;;;22.30;63.70;;;;;;5010125;28;20026;-76
2021/09/25 10:36:40;;;;;;;10.88;6.68;;;22.30;64.60;;;;;;5022941;28;20042;-77
2021/09/25 10:39:24;;;;;;;10.48;6.32;;;22.50;63.60;;;;;;5032066;28;20044;-76
2021/09/25 10:41:58;;;;;;;10.55;6.40;;;22.70;63.50;;;;;;5030919;28;20064;-72
2021/09/25 10:44:29;;;;;;;11.68;6.97;;;22.80;62.70;;;;;;5032684;28;20034;-73
2021/09/25 10:47:32;;;;;;;11.02;6.93;;;23.00;62.10;;;;;;5032621;28;20076;-74
2021/09/25 10:49:59;;;;;;;10.43;6.45;;;22.70;62.70;;;;;;5027861;28;20069;-74
2021/09/25 10:52:40;;;;;;;9.88;6.78;;;22.80;62.20;;;;;;5027218;28;20037;-78
2021/09/25 10:55:27;;;;;;;14.18;7.82;;;22.90;62.50;;;;;;5042613;28;20049;-77
2021/09/25 10:58:17;;;;;;;9.20;5.82;;;23.10;60.70;;;;;;5026938;28;20026;-75
2021/09/25 11:00:56;;;;;;;12.70;7.15;;;23.30;60.40;;;;;;5028663;28;20098;-74
2021/09/25 11:06:14;;;;;;;9.68;5.72;;;23.50;59.60;;;;;;5032985;28;20056;-73
2021/09/25 11:08:54;;;;;;;10.47;5.93;;;23.60;59.10;;;;;;5025811;28;20045;-73
2021/09/25 11:11:46;;;;;;;8.60;5.90;;;23.50;58.30;;;;;;5030292;28;20053;-73
2021/09/25 11:14:40;;;;;;;31.58;15.82;;;23.40;59.10;;;;;;5028717;28;20056;-72
2021/09/25 11:17:27;;;;;;;17.67;9.40;;;23.50;59.00;;;;;;5024411;28;20048;-72
2021/09/25 11:20:07;;;;;;;21.20;12.48;;;23.30;58.60;;;;;;5026316;28;20041;-72
2021/09/25 11:22:38;;;;;;;9.30;5.30;;;23.30;58.70;;;;;;5022811;28;20034;-73
2021/09/25 11:25:07;;;;;;;13.70;10.45;;;23.50;57.10;;;;;;5026069;28;20042;-75
2021/09/25 11:27:47;;;;;;;9.85;5.60;;;23.60;57.30;;;;;;5026642;28;20072;-73
2021/09/25 11:30:21;;;;;;;12.93;7.20;;;23.50;57.50;;;;;;5029303;28;20029;-73
2021/09/25 11:33:01;;;;;;;10.95;6.55;;;23.70;58.30;;;;;;5031745;28;20017;-73
2021/09/25 11:35:29;;;;;;;9.45;6.03;;;23.60;57.50;;;;;;5030358;28;20048;-74
2021/09/25 11:38:03;;;;;;;8.82;5.00;;;23.60;57.10;;;;;;5036761;28;20061;-73
2021/09/25 11:40:37;;;;;;;9.00;4.78;;;23.80;57.40;;;;;;5030187;28;20042;-73
2021/09/25 11:43:05;;;;;;;9.10;4.43;;;23.60;56.50;;;;;;5024977;28;20038;-74
2021/09/25 11:45:43;;;;;;;8.50;4.57;;;23.60;56.80;;;;;;5024913;28;20022;-74
2021/09/25 11:48:10;;;;;;;8.75;4.00;;;23.80;56.00;;;;;;5027247;28;20039;-72
2021/09/25 11:50:42;;;;;;;5.95;3.80;;;23.70;55.00;;;;;;5027396;28;20034;-74
2021/09/25 11:53:11;;;;;;;8.40;3.75;;;24.00;54.50;;;;;;5029029;28;20009;-73
2021/09/25 11:55:38;;;;;;;8.38;3.40;;;24.10;52.40;;;;;;5028895;28;20041;-75
2021/09/25 11:58:10;;;;;;;6.47;3.22;;;24.10;52.50;;;;;;5028445;28;20030;-75
2021/09/25 12:00:39;;;;;;;5.25;2.97;;;24.30;51.60;;;;;;5027785;28;20026;-75
2021/09/25 12:03:07;;;;;;;10.13;3.35;;;24.30;51.30;;;;;;5027606;28;20042;-74
2021/09/25 12:05:41;;;;;;;6.82;3.00;;;24.50;52.60;;;;;;5031179;28;20217;-75
2021/09/25 12:08:10;;;;;;;7.38;3.75;;;24.60;50.40;;;;;;5029941;28;20025;-72
2021/09/25 12:11:04;;;;;;;8.82;4.80;;;24.60;50.60;;;;;;5032120;28;20090;-75
2021/09/25 12:13:30;;;;;;;6.60;4.00;;;24.60;53.50;;;;;;5021050;28;20038;-74
2021/09/25 12:16:01;;;;;;;6.40;3.63;;;24.80;52.10;;;;;;5020964;28;20046;-74
2021/09/25 12:18:31;;;;;;;6.13;3.40;;;24.80;52.50;;;;;;5024246;28;20085;-74
2021/09/25 12:21:04;;;;;;;6.65;3.45;;;24.70;50.90;;;;;;5022911;28;20030;-75
2021/09/25 12:23:39;;;;;;;6.90;3.80;;;24.70;50.10;;;;;;5033165;28;20122;-72
2021/09/25 12:26:06;;;;;;;7.72;3.70;;;24.80;50.00;;;;;;5027827;28;20109;-72
2021/09/25 12:28:45;;;;;;;8.48;3.45;;;24.80;49.10;;;;;;5032059;28;20041;-76
2021/09/25 12:31:16;;;;;;;5.88;3.30;;;24.90;49.90;;;;;;5029799;28;20049;-74
2021/09/25 12:33:55;;;;;;;5.93;3.40;;;24.80;49.50;;;;;;5034848;28;20030;-76
2021/09/25 12:36:35;;;;;;;6.45;3.20;;;24.70;50.10;;;;;;5031921;28;20073;-74